sensor_id;sensor_type;location;lat;lon;timestamp;temperature;humidity
55369;DHT22;41247;49.736;8.752;2023-04-24T00:02:44;9.90;99.90
55369;DHT22;41247;49.736;8.752;2023-04-24T00:06:28;9.90;99.90
55369;DHT22;41247;49.736;8.752;2023-04-24T00:10:09;9.90;99.90
55369;DHT22;41247;49.736;8.752;2023-04-24T00:13:50;9.90;99.90
55369;DHT22;41247;49.736;8.752;2023-04-24T00:17:30;9.90;99.90
55369;DHT22;41247;49.736;8.752;2023-04-24T00:21:11;9.90;99.90
55369;DHT22;41247;49.736;8.752;2023-04-24T00:24:52;10.00;99.90
55369;DHT22;41247;49.736;8.752;2023-04-24T00:28:33;10.00;99.90
55369;DHT22;41247;49.736;8.752;2023-04-24T00:32:14;10.00;99.90
55369;DHT22;41247;49.736;8.752;2023-04-24T00:35:55;10.00;99.90
55369;DHT22;41247;49.736;8.752;2023-04-24T00:39:35;10.00;99.90
55369;DHT22;41247;49.736;8.752;2023-04-24T00:43:16;10.00;99.90
55369;DHT22;41247;49.736;8.752;2023-04-24T00:46:59;10.00;99.90
55369;DHT22;41247;49.736;8.752;2023-04-24T00:50:39;10.00;99.90
55369;DHT22;41247;49.736;8.752;2023-04-24T00:54:20;10.00;99.90
55369;DHT22;41247;49.736;8.752;2023-04-24T00:58:01;10.00;99.90
55369;DHT22;41247;49.736;8.752;2023-04-24T01:01:42;9.90;99.90
55369;DHT22;41247;49.736;8.752;2023-04-24T01:05:23;10.00;99.90
55369;DHT22;41247;49.736;8.752;2023-04-24T01:09:04;10.00;99.90
55369;DHT22;41247;49.736;8.752;2023-04-24T01:12:46;9.90;99.90
55369;DHT22;41247;49.736;8.752;2023-04-24T01:16:26;10.00;99.90
55369;DHT22;41247;49.736;8.752;2023-04-24T01:20:07;10.00;99.90
55369;DHT22;41247;49.736;8.752;2023-04-24T01:23:48;10.00;99.90
55369;DHT22;41247;49.736;8.752;2023-04-24T01:27:28;10.00;99.90
55369;DHT22;41247;49.736;8.752;2023-04-24T01:31:09;9.90;99.90
55369;DHT22;41247;49.736;8.752;2023-04-24T01:34:50;9.90;99.90
55369;DHT22;41247;49.736;8.752;2023-04-24T01:38:31;9.90;99.90
55369;DHT22;41247;49.736;8.752;2023-04-24T01:42:12;9.80;99.90
55369;DHT22;41247;49.736;8.752;2023-04-24T01:45:53;9.90;99.90
55369;DHT22;41247;49.736;8.752;2023-04-24T01:49:34;10.00;99.90
55369;DHT22;41247;49.736;8.752;2023-04-24T01:53:14;10.00;99.90
55369;DHT22;41247;49.736;8.752;2023-04-24T01:56:55;10.00;99.90
55369;DHT22;41247;49.736;8.752;2023-04-24T02:00:36;10.00;99.90
55369;DHT22;41247;49.736;8.752;2023-04-24T02:04:16;10.00;99.90
55369;DHT22;41247;49.736;8.752;2023-04-24T02:07:57;10.10;99.90
55369;DHT22;41247;49.736;8.752;2023-04-24T02:11:38;10.00;99.90
55369;DHT22;41247;49.736;8.752;2023-04-24T02:15:18;10.00;99.90
55369;DHT22;41247;49.736;8.752;2023-04-24T02:18:59;9.90;99.90
55369;DHT22;41247;49.736;8.752;2023-04-24T02:22:39;9.90;99.90
55369;DHT22;41247;49.736;8.752;2023-04-24T02:26:20;9.90;99.90
55369;DHT22;41247;49.736;8.752;2023-04-24T02:30:01;9.90;99.90
55369;DHT22;41247;49.736;8.752;2023-04-24T02:33:41;9.90;99.90
55369;DHT22;41247;49.736;8.752;2023-04-24T02:37:22;10.00;99.90
55369;DHT22;41247;49.736;8.752;2023-04-24T02:41:02;9.90;99.90
55369;DHT22;41247;49.736;8.752;2023-04-24T02:44:43;9.90;99.90
55369;DHT22;41247;49.736;8.752;2023-04-24T02:48:24;10.00;99.90
55369;DHT22;41247;49.736;8.752;2023-04-24T02:52:04;9.90;99.90
55369;DHT22;41247;49.736;8.752;2023-04-24T02:55:45;9.50;99.90
55369;DHT22;41247;49.736;8.752;2023-04-24T02:59:25;9.20;99.90
55369;DHT22;41247;49.736;8.752;2023-04-24T03:03:06;9.00;99.90
55369;DHT22;41247;49.736;8.752;2023-04-24T03:06:46;8.90;99.90
55369;DHT22;41247;49.736;8.752;2023-04-24T03:10:27;8.90;99.90
55369;DHT22;41247;49.736;8.752;2023-04-24T03:14:08;8.80;99.90
55369;DHT22;41247;49.736;8.752;2023-04-24T03:17:48;8.70;99.90
55369;DHT22;41247;49.736;8.752;2023-04-24T03:21:29;8.60;99.90
55369;DHT22;41247;49.736;8.752;2023-04-24T03:25:09;8.60;99.90
55369;DHT22;41247;49.736;8.752;2023-04-24T03:28:50;8.50;99.90
55369;DHT22;41247;49.736;8.752;2023-04-24T03:32:31;8.50;99.90
55369;DHT22;41247;49.736;8.752;2023-04-24T03:36:11;8.50;99.90
55369;DHT22;41247;49.736;8.752;2023-04-24T03:39:55;8.50;99.90
55369;DHT22;41247;49.736;8.752;2023-04-24T03:43:35;8.50;99.90
55369;DHT22;41247;49.736;8.752;2023-04-24T03:47:16;8.30;99.90
55369;DHT22;41247;49.736;8.752;2023-04-24T03:50:57;8.20;99.90
55369;DHT22;41247;49.736;8.752;2023-04-24T03:54:37;8.10;99.90
55369;DHT22;41247;49.736;8.752;2023-04-24T03:58:18;8.00;99.90
55369;DHT22;41247;49.736;8.752;2023-04-24T04:01:58;8.00;99.90
55369;DHT22;41247;49.736;8.752;2023-04-24T04:05:39;7.90;99.90
55369;DHT22;41247;49.736;8.752;2023-04-24T04:09:20;7.80;99.90
55369;DHT22;41247;49.736;8.752;2023-04-24T04:13:01;7.70;99.90
55369;DHT22;41247;49.736;8.752;2023-04-24T04:16:41;7.70;99.90
55369;DHT22;41247;49.736;8.752;2023-04-24T04:20:22;7.70;99.90
55369;DHT22;41247;49.736;8.752;2023-04-24T04:24:03;7.60;99.90
55369;DHT22;41247;49.736;8.752;2023-04-24T04:27:43;7.60;99.90
55369;DHT22;41247;49.736;8.752;2023-04-24T04:31:24;7.50;99.90
55369;DHT22;41247;49.736;8.752;2023-04-24T04:35:05;7.50;99.90
55369;DHT22;41247;49.736;8.752;2023-04-24T04:38:45;7.40;99.90
55369;DHT22;41247;49.736;8.752;2023-04-24T04:42:26;7.30;99.90
55369;DHT22;41247;49.736;8.752;2023-04-24T04:46:07;7.30;99.90
55369;DHT22;41247;49.736;8.752;2023-04-24T04:49:47;7.20;99.90
55369;DHT22;41247;49.736;8.752;2023-04-24T04:53:28;7.10;99.90
55369;DHT22;41247;49.736;8.752;2023-04-24T04:57:09;7.10;99.90
55369;DHT22;41247;49.736;8.752;2023-04-24T05:00:50;7.10;99.90
55369;DHT22;41247;49.736;8.752;2023-04-24T05:04:31;7.10;99.90
55369;DHT22;41247;49.736;8.752;2023-04-24T05:08:11;7.10;99.90
55369;DHT22;41247;49.736;8.752;2023-04-24T05:11:52;7.10;99.90
55369;DHT22;41247;49.736;8.752;2023-04-24T05:15:33;7.10;99.90
55369;DHT22;41247;49.736;8.752;2023-04-24T05:19:13;7.00;99.90
55369;DHT22;41247;49.736;8.752;2023-04-24T05:22:54;7.10;99.90
55369;DHT22;41247;49.736;8.752;2023-04-24T05:26:35;7.10;99.90
55369;DHT22;41247;49.736;8.752;2023-04-24T05:30:15;7.30;99.90
55369;DHT22;41247;49.736;8.752;2023-04-24T05:33:56;7.40;99.90
55369;DHT22;41247;49.736;8.752;2023-04-24T05:37:37;7.40;99.90
55369;DHT22;41247;49.736;8.752;2023-04-24T05:41:17;7.40;99.90
55369;DHT22;41247;49.736;8.752;2023-04-24T05:44:58;7.50;99.90
55369;DHT22;41247;49.736;8.752;2023-04-24T05:48:38;7.50;99.90
55369;DHT22;41247;49.736;8.752;2023-04-24T05:52:19;7.50;99.90
55369;DHT22;41247;49.736;8.752;2023-04-24T05:56:00;7.50;99.90
55369;DHT22;41247;49.736;8.752;2023-04-24T05:59:41;7.50;99.90
55369;DHT22;41247;49.736;8.752;2023-04-24T06:03:21;7.50;99.90
55369;DHT22;41247;49.736;8.752;2023-04-24T06:07:02;7.60;99.90
55369;DHT22;41247;49.736;8.752;2023-04-24T06:10:43;7.60;99.90
55369;DHT22;41247;49.736;8.752;2023-04-24T06:14:23;7.60;99.90
55369;DHT22;41247;49.736;8.752;2023-04-24T06:18:04;7.60;99.90
55369;DHT22;41247;49.736;8.752;2023-04-24T06:21:45;7.60;99.90
55369;DHT22;41247;49.736;8.752;2023-04-24T06:25:26;7.70;99.90
55369;DHT22;41247;49.736;8.752;2023-04-24T06:29:06;7.70;99.90
55369;DHT22;41247;49.736;8.752;2023-04-24T06:32:47;7.70;99.90
55369;DHT22;41247;49.736;8.752;2023-04-24T06:36:28;7.90;99.90
55369;DHT22;41247;49.736;8.752;2023-04-24T06:40:09;8.00;99.90
55369;DHT22;41247;49.736;8.752;2023-04-24T06:43:50;8.00;99.90
55369;DHT22;41247;49.736;8.752;2023-04-24T06:47:30;8.10;99.90
55369;DHT22;41247;49.736;8.752;2023-04-24T06:51:11;8.20;99.90
55369;DHT22;41247;49.736;8.752;2023-04-24T06:54:52;8.50;99.90
55369;DHT22;41247;49.736;8.752;2023-04-24T06:58:32;8.60;99.90
55369;DHT22;41247;49.736;8.752;2023-04-24T07:02:15;8.60;99.90
55369;DHT22;41247;49.736;8.752;2023-04-24T07:05:56;8.60;99.90
55369;DHT22;41247;49.736;8.752;2023-04-24T07:09:36;8.40;99.90
55369;DHT22;41247;49.736;8.752;2023-04-24T07:13:17;8.40;99.90
55369;DHT22;41247;49.736;8.752;2023-04-24T07:16:58;8.40;99.90
55369;DHT22;41247;49.736;8.752;2023-04-24T07:20:38;8.50;99.90
55369;DHT22;41247;49.736;8.752;2023-04-24T07:24:19;8.60;99.90
55369;DHT22;41247;49.736;8.752;2023-04-24T07:28:00;8.60;99.90
55369;DHT22;41247;49.736;8.752;2023-04-24T07:31:40;8.60;99.90
55369;DHT22;41247;49.736;8.752;2023-04-24T07:35:21;8.70;99.90
55369;DHT22;41247;49.736;8.752;2023-04-24T07:39:02;8.90;99.90
55369;DHT22;41247;49.736;8.752;2023-04-24T07:42:42;8.90;99.90
55369;DHT22;41247;49.736;8.752;2023-04-24T07:46:23;9.00;99.90
55369;DHT22;41247;49.736;8.752;2023-04-24T07:50:04;9.00;99.90
55369;DHT22;41247;49.736;8.752;2023-04-24T07:53:45;9.00;99.90
55369;DHT22;41247;49.736;8.752;2023-04-24T07:57:26;9.00;99.90
55369;DHT22;41247;49.736;8.752;2023-04-24T08:01:06;9.10;99.90
55369;DHT22;41247;49.736;8.752;2023-04-24T08:04:47;9.10;99.90
55369;DHT22;41247;49.736;8.752;2023-04-24T08:08:28;9.30;99.90
55369;DHT22;41247;49.736;8.752;2023-04-24T08:12:08;9.30;99.90
55369;DHT22;41247;49.736;8.752;2023-04-24T08:15:49;9.10;99.90
55369;DHT22;41247;49.736;8.752;2023-04-24T08:19:30;9.00;99.90
55369;DHT22;41247;49.736;8.752;2023-04-24T08:23:10;8.90;99.90
55369;DHT22;41247;49.736;8.752;2023-04-24T08:26:51;9.00;99.90
55369;DHT22;41247;49.736;8.752;2023-04-24T08:30:32;9.00;99.90
55369;DHT22;41247;49.736;8.752;2023-04-24T08:34:13;9.00;99.90
55369;DHT22;41247;49.736;8.752;2023-04-24T08:37:53;9.20;99.90
55369;DHT22;41247;49.736;8.752;2023-04-24T08:41:34;9.20;99.90
55369;DHT22;41247;49.736;8.752;2023-04-24T08:45:15;9.20;99.90
55369;DHT22;41247;49.736;8.752;2023-04-24T08:48:56;9.10;99.90
55369;DHT22;41247;49.736;8.752;2023-04-24T08:52:38;9.10;99.90
55369;DHT22;41247;49.736;8.752;2023-04-24T08:56:18;9.40;99.90
55369;DHT22;41247;49.736;8.752;2023-04-24T09:00:00;9.50;99.90
55369;DHT22;41247;49.736;8.752;2023-04-24T09:03:42;9.40;99.90
55369;DHT22;41247;49.736;8.752;2023-04-24T09:07:24;9.60;99.90
55369;DHT22;41247;49.736;8.752;2023-04-24T09:11:07;9.90;99.90
55369;DHT22;41247;49.736;8.752;2023-04-24T09:14:49;10.10;99.90
55369;DHT22;41247;49.736;8.752;2023-04-24T09:18:29;9.90;99.90
55369;DHT22;41247;49.736;8.752;2023-04-24T09:22:11;9.60;99.90
55369;DHT22;41247;49.736;8.752;2023-04-24T09:25:55;9.30;99.90
55369;DHT22;41247;49.736;8.752;2023-04-24T09:29:36;9.10;99.90
55369;DHT22;41247;49.736;8.752;2023-04-24T09:33:16;9.00;99.90
55369;DHT22;41247;49.736;8.752;2023-04-24T09:36:57;9.00;99.90
55369;DHT22;41247;49.736;8.752;2023-04-24T09:40:38;9.10;99.90
55369;DHT22;41247;49.736;8.752;2023-04-24T09:44:21;9.10;99.90
55369;DHT22;41247;49.736;8.752;2023-04-24T09:48:03;9.10;99.90
55369;DHT22;41247;49.736;8.752;2023-04-24T09:51:44;9.10;99.90
55369;DHT22;41247;49.736;8.752;2023-04-24T09:55:25;9.00;99.90
55369;DHT22;41247;49.736;8.752;2023-04-24T09:59:06;8.90;99.90
55369;DHT22;41247;49.736;8.752;2023-04-24T10:02:50;8.90;99.90
55369;DHT22;41247;49.736;8.752;2023-04-24T10:06:34;8.90;99.90
55369;DHT22;41247;49.736;8.752;2023-04-24T10:10:15;9.00;99.90
55369;DHT22;41247;49.736;8.752;2023-04-24T10:13:56;9.10;99.90
55369;DHT22;41247;49.736;8.752;2023-04-24T10:17:39;9.30;99.90
55369;DHT22;41247;49.736;8.752;2023-04-24T10:21:19;9.30;99.90
55369;DHT22;41247;49.736;8.752;2023-04-24T10:25:00;9.20;99.90
55369;DHT22;41247;49.736;8.752;2023-04-24T10:28:47;9.20;99.90
55369;DHT22;41247;49.736;8.752;2023-04-24T10:32:28;9.40;99.90
55369;DHT22;41247;49.736;8.752;2023-04-24T10:36:12;9.40;99.90
55369;DHT22;41247;49.736;8.752;2023-04-24T10:39:54;9.50;99.90
55369;DHT22;41247;49.736;8.752;2023-04-24T10:43:35;9.50;99.90
55369;DHT22;41247;49.736;8.752;2023-04-24T10:47:16;9.60;99.90
55369;DHT22;41247;49.736;8.752;2023-04-24T10:50:56;9.60;99.90
55369;DHT22;41247;49.736;8.752;2023-04-24T10:58:26;9.30;99.90
55369;DHT22;41247;49.736;8.752;2023-04-24T11:02:17;9.20;99.90
55369;DHT22;41247;49.736;8.752;2023-04-24T11:06:06;9.20;99.90
55369;DHT22;41247;49.736;8.752;2023-04-24T11:10:00;9.30;99.90
55369;DHT22;41247;49.736;8.752;2023-04-24T11:17:42;9.40;99.90
55369;DHT22;41247;49.736;8.752;2023-04-24T11:21:23;9.80;99.90
55369;DHT22;41247;49.736;8.752;2023-04-24T11:25:04;10.20;99.90
55369;DHT22;41247;49.736;8.752;2023-04-24T11:28:49;10.40;99.90
55369;DHT22;41247;49.736;8.752;2023-04-24T11:32:35;10.50;99.90
55369;DHT22;41247;49.736;8.752;2023-04-24T11:36:17;10.30;99.90
55369;DHT22;41247;49.736;8.752;2023-04-24T11:39:59;10.10;99.90
55369;DHT22;41247;49.736;8.752;2023-04-24T11:43:41;10.00;99.90
55369;DHT22;41247;49.736;8.752;2023-04-24T11:47:32;9.90;99.90
55369;DHT22;41247;49.736;8.752;2023-04-24T11:51:13;9.90;99.90
55369;DHT22;41247;49.736;8.752;2023-04-24T11:54:54;10.00;99.90
55369;DHT22;41247;49.736;8.752;2023-04-24T11:58:35;10.10;99.90
55369;DHT22;41247;49.736;8.752;2023-04-24T12:02:23;10.00;99.90
55369;DHT22;41247;49.736;8.752;2023-04-24T12:06:10;10.00;99.90
55369;DHT22;41247;49.736;8.752;2023-04-24T12:09:58;10.00;99.90
55369;DHT22;41247;49.736;8.752;2023-04-24T12:13:39;10.00;99.90
55369;DHT22;41247;49.736;8.752;2023-04-24T12:17:28;10.20;99.90
55369;DHT22;41247;49.736;8.752;2023-04-24T12:21:19;10.20;99.90
55369;DHT22;41247;49.736;8.752;2023-04-24T12:25:04;10.00;99.90
55369;DHT22;41247;49.736;8.752;2023-04-24T12:28:48;9.80;99.90
55369;DHT22;41247;49.736;8.752;2023-04-24T12:32:29;9.70;99.90
55369;DHT22;41247;49.736;8.752;2023-04-24T12:36:10;9.60;99.90
55369;DHT22;41247;49.736;8.752;2023-04-24T12:40:02;9.30;99.90
55369;DHT22;41247;49.736;8.752;2023-04-24T12:43:52;8.90;99.90
55369;DHT22;41247;49.736;8.752;2023-04-24T12:47:34;8.60;99.90
55369;DHT22;41247;49.736;8.752;2023-04-24T12:51:15;8.60;99.90
55369;DHT22;41247;49.736;8.752;2023-04-24T12:54:59;8.90;99.90
55369;DHT22;41247;49.736;8.752;2023-04-24T12:58:41;9.30;99.90
55369;DHT22;41247;49.736;8.752;2023-04-24T13:02:22;9.80;99.90
55369;DHT22;41247;49.736;8.752;2023-04-24T13:06:03;10.20;99.90
55369;DHT22;41247;49.736;8.752;2023-04-24T13:09:44;10.40;99.90
55369;DHT22;41247;49.736;8.752;2023-04-24T13:13:26;10.40;99.90
55369;DHT22;41247;49.736;8.752;2023-04-24T13:17:07;10.40;99.90
55369;DHT22;41247;49.736;8.752;2023-04-24T13:20:48;10.30;99.90
55369;DHT22;41247;49.736;8.752;2023-04-24T13:24:28;10.30;99.90
55369;DHT22;41247;49.736;8.752;2023-04-24T13:28:09;10.30;99.90
55369;DHT22;41247;49.736;8.752;2023-04-24T13:31:54;10.40;99.90
55369;DHT22;41247;49.736;8.752;2023-04-24T13:35:34;10.70;99.90
55369;DHT22;41247;49.736;8.752;2023-04-24T13:39:15;11.10;99.90
55369;DHT22;41247;49.736;8.752;2023-04-24T13:42:56;11.30;99.90
55369;DHT22;41247;49.736;8.752;2023-04-24T13:46:36;11.40;99.90
55369;DHT22;41247;49.736;8.752;2023-04-24T13:50:17;11.50;99.90
55369;DHT22;41247;49.736;8.752;2023-04-24T13:53:57;11.30;99.90
55369;DHT22;41247;49.736;8.752;2023-04-24T13:57:38;11.10;99.90
55369;DHT22;41247;49.736;8.752;2023-04-24T14:01:19;11.10;99.90
55369;DHT22;41247;49.736;8.752;2023-04-24T14:04:59;11.50;99.90
55369;DHT22;41247;49.736;8.752;2023-04-24T14:08:40;11.90;99.90
55369;DHT22;41247;49.736;8.752;2023-04-24T14:12:21;11.90;99.90
55369;DHT22;41247;49.736;8.752;2023-04-24T14:16:01;11.70;99.90
55369;DHT22;41247;49.736;8.752;2023-04-24T14:19:42;11.70;99.90
55369;DHT22;41247;49.736;8.752;2023-04-24T14:23:22;11.60;99.90
55369;DHT22;41247;49.736;8.752;2023-04-24T14:27:03;11.60;99.90
55369;DHT22;41247;49.736;8.752;2023-04-24T14:30:44;11.40;99.90
55369;DHT22;41247;49.736;8.752;2023-04-24T14:34:24;11.20;99.90
55369;DHT22;41247;49.736;8.752;2023-04-24T14:38:05;11.10;99.90
55369;DHT22;41247;49.736;8.752;2023-04-24T14:41:46;11.10;99.90
55369;DHT22;41247;49.736;8.752;2023-04-24T14:45:26;11.10;99.90
55369;DHT22;41247;49.736;8.752;2023-04-24T14:49:08;11.20;99.90
55369;DHT22;41247;49.736;8.752;2023-04-24T14:52:49;11.30;99.90
55369;DHT22;41247;49.736;8.752;2023-04-24T14:56:29;11.30;99.90
55369;DHT22;41247;49.736;8.752;2023-04-24T15:00:10;11.50;99.90
55369;DHT22;41247;49.736;8.752;2023-04-24T15:03:51;11.50;99.90
55369;DHT22;41247;49.736;8.752;2023-04-24T15:07:32;11.50;99.90
55369;DHT22;41247;49.736;8.752;2023-04-24T15:11:12;11.60;99.90
55369;DHT22;41247;49.736;8.752;2023-04-24T15:14:53;11.50;99.90
55369;DHT22;41247;49.736;8.752;2023-04-24T15:18:33;11.30;99.90
55369;DHT22;41247;49.736;8.752;2023-04-24T15:22:14;11.20;99.90
55369;DHT22;41247;49.736;8.752;2023-04-24T15:25:55;11.10;99.90
55369;DHT22;41247;49.736;8.752;2023-04-24T15:29:35;11.10;99.90
55369;DHT22;41247;49.736;8.752;2023-04-24T15:33:16;11.10;99.90
55369;DHT22;41247;49.736;8.752;2023-04-24T15:36:57;11.10;99.90
55369;DHT22;41247;49.736;8.752;2023-04-24T15:40:38;11.20;99.90
55369;DHT22;41247;49.736;8.752;2023-04-24T15:44:19;11.50;99.90
55369;DHT22;41247;49.736;8.752;2023-04-24T15:48:00;11.80;99.90
55369;DHT22;41247;49.736;8.752;2023-04-24T15:51:41;12.00;99.90
55369;DHT22;41247;49.736;8.752;2023-04-24T15:55:22;11.90;99.90
55369;DHT22;41247;49.736;8.752;2023-04-24T15:59:02;11.80;99.90
55369;DHT22;41247;49.736;8.752;2023-04-24T16:02:43;11.80;99.90
55369;DHT22;41247;49.736;8.752;2023-04-24T16:06:23;11.80;99.90
55369;DHT22;41247;49.736;8.752;2023-04-24T16:10:04;11.50;99.90
55369;DHT22;41247;49.736;8.752;2023-04-24T16:13:45;12.00;99.90
55369;DHT22;41247;49.736;8.752;2023-04-24T16:17:26;12.40;99.90
55369;DHT22;41247;49.736;8.752;2023-04-24T16:21:06;12.90;99.90
55369;DHT22;41247;49.736;8.752;2023-04-24T16:24:47;13.50;99.90
55369;DHT22;41247;49.736;8.752;2023-04-24T16:28:29;13.90;99.90
55369;DHT22;41247;49.736;8.752;2023-04-24T16:32:09;13.40;99.90
55369;DHT22;41247;49.736;8.752;2023-04-24T16:35:50;12.10;99.90
55369;DHT22;41247;49.736;8.752;2023-04-24T16:39:31;11.50;99.90
55369;DHT22;41247;49.736;8.752;2023-04-24T16:43:11;11.10;99.90
55369;DHT22;41247;49.736;8.752;2023-04-24T16:46:52;10.90;99.90
55369;DHT22;41247;49.736;8.752;2023-04-24T16:50:33;10.80;99.90
55369;DHT22;41247;49.736;8.752;2023-04-24T16:54:13;10.50;99.90
55369;DHT22;41247;49.736;8.752;2023-04-24T16:57:54;10.40;99.90
55369;DHT22;41247;49.736;8.752;2023-04-24T17:01:34;10.60;99.90
55369;DHT22;41247;49.736;8.752;2023-04-24T17:05:15;11.40;99.90
55369;DHT22;41247;49.736;8.752;2023-04-24T17:08:56;11.70;99.90
55369;DHT22;41247;49.736;8.752;2023-04-24T17:12:37;11.40;99.90
55369;DHT22;41247;49.736;8.752;2023-04-24T17:16:17;10.80;99.90
55369;DHT22;41247;49.736;8.752;2023-04-24T17:19:58;10.40;99.90
55369;DHT22;41247;49.736;8.752;2023-04-24T17:23:39;10.10;99.90
55369;DHT22;41247;49.736;8.752;2023-04-24T17:27:19;10.00;99.90
55369;DHT22;41247;49.736;8.752;2023-04-24T17:31:00;9.90;99.90
55369;DHT22;41247;49.736;8.752;2023-04-24T17:34:40;9.80;99.90
55369;DHT22;41247;49.736;8.752;2023-04-24T17:38:21;9.70;99.90
55369;DHT22;41247;49.736;8.752;2023-04-24T17:42:02;9.60;99.90
55369;DHT22;41247;49.736;8.752;2023-04-24T17:45:47;9.60;99.90
55369;DHT22;41247;49.736;8.752;2023-04-24T17:49:28;9.50;99.90
55369;DHT22;41247;49.736;8.752;2023-04-24T17:53:09;9.40;99.90
55369;DHT22;41247;49.736;8.752;2023-04-24T17:56:50;9.40;99.90
55369;DHT22;41247;49.736;8.752;2023-04-24T18:00:34;9.30;99.90
55369;DHT22;41247;49.736;8.752;2023-04-24T18:04:15;9.30;99.90
55369;DHT22;41247;49.736;8.752;2023-04-24T18:07:56;9.30;99.90
55369;DHT22;41247;49.736;8.752;2023-04-24T18:11:37;9.20;99.90
55369;DHT22;41247;49.736;8.752;2023-04-24T18:15:18;9.20;99.90
55369;DHT22;41247;49.736;8.752;2023-04-24T18:18:59;9.20;99.90
55369;DHT22;41247;49.736;8.752;2023-04-24T18:22:40;9.10;99.90
55369;DHT22;41247;49.736;8.752;2023-04-24T18:26:20;9.10;99.90
55369;DHT22;41247;49.736;8.752;2023-04-24T18:30:01;9.00;99.90
55369;DHT22;41247;49.736;8.752;2023-04-24T18:33:42;8.80;99.90
55369;DHT22;41247;49.736;8.752;2023-04-24T18:37:23;8.60;99.90
55369;DHT22;41247;49.736;8.752;2023-04-24T18:41:03;8.50;99.90
55369;DHT22;41247;49.736;8.752;2023-04-24T18:44:44;8.40;99.90
55369;DHT22;41247;49.736;8.752;2023-04-24T18:48:25;8.20;99.90
55369;DHT22;41247;49.736;8.752;2023-04-24T18:52:05;8.00;99.90
55369;DHT22;41247;49.736;8.752;2023-04-24T18:55:46;7.80;99.90
55369;DHT22;41247;49.736;8.752;2023-04-24T18:59:26;7.80;99.90
55369;DHT22;41247;49.736;8.752;2023-04-24T19:03:07;7.70;99.90
55369;DHT22;41247;49.736;8.752;2023-04-24T19:06:48;7.70;99.90
55369;DHT22;41247;49.736;8.752;2023-04-24T19:10:28;7.60;99.90
55369;DHT22;41247;49.736;8.752;2023-04-24T19:14:09;7.50;99.90
55369;DHT22;41247;49.736;8.752;2023-04-24T19:17:49;7.50;99.90
55369;DHT22;41247;49.736;8.752;2023-04-24T19:21:30;7.50;99.90
55369;DHT22;41247;49.736;8.752;2023-04-24T19:25:11;7.50;99.90
55369;DHT22;41247;49.736;8.752;2023-04-24T19:28:51;7.40;99.90
55369;DHT22;41247;49.736;8.752;2023-04-24T19:32:32;7.40;99.90
55369;DHT22;41247;49.736;8.752;2023-04-24T19:36:16;7.40;99.90
55369;DHT22;41247;49.736;8.752;2023-04-24T19:39:57;7.40;99.90
55369;DHT22;41247;49.736;8.752;2023-04-24T19:43:38;7.50;99.90
55369;DHT22;41247;49.736;8.752;2023-04-24T19:47:19;7.60;99.90
55369;DHT22;41247;49.736;8.752;2023-04-24T19:51:00;7.60;99.90
55369;DHT22;41247;49.736;8.752;2023-04-24T19:54:40;7.60;99.90
55369;DHT22;41247;49.736;8.752;2023-04-24T19:58:21;7.70;99.90
55369;DHT22;41247;49.736;8.752;2023-04-24T20:02:02;7.70;99.90
55369;DHT22;41247;49.736;8.752;2023-04-24T20:05:43;7.70;99.90
55369;DHT22;41247;49.736;8.752;2023-04-24T20:09:23;7.70;99.90
55369;DHT22;41247;49.736;8.752;2023-04-24T20:13:04;7.60;99.90
55369;DHT22;41247;49.736;8.752;2023-04-24T20:16:44;7.60;99.90
55369;DHT22;41247;49.736;8.752;2023-04-24T20:20:25;7.50;99.90
55369;DHT22;41247;49.736;8.752;2023-04-24T20:24:06;7.60;99.90
55369;DHT22;41247;49.736;8.752;2023-04-24T20:27:47;7.60;99.90
55369;DHT22;41247;49.736;8.752;2023-04-24T20:31:28;7.60;99.90
55369;DHT22;41247;49.736;8.752;2023-04-24T20:35:09;7.60;99.90
55369;DHT22;41247;49.736;8.752;2023-04-24T20:38:49;7.60;99.90
55369;DHT22;41247;49.736;8.752;2023-04-24T20:42:31;7.60;99.90
55369;DHT22;41247;49.736;8.752;2023-04-24T20:46:12;7.60;99.90
55369;DHT22;41247;49.736;8.752;2023-04-24T20:49:52;7.60;99.90
55369;DHT22;41247;49.736;8.752;2023-04-24T20:53:33;7.60;99.90
55369;DHT22;41247;49.736;8.752;2023-04-24T20:57:14;7.60;99.90
55369;DHT22;41247;49.736;8.752;2023-04-24T21:00:54;7.60;99.90
55369;DHT22;41247;49.736;8.752;2023-04-24T21:04:35;7.60;99.90
55369;DHT22;41247;49.736;8.752;2023-04-24T21:08:16;7.70;99.90
55369;DHT22;41247;49.736;8.752;2023-04-24T21:11:57;7.70;99.90
55369;DHT22;41247;49.736;8.752;2023-04-24T21:15:37;7.70;99.90
55369;DHT22;41247;49.736;8.752;2023-04-24T21:19:18;7.70;99.90
55369;DHT22;41247;49.736;8.752;2023-04-24T21:22:58;7.70;99.90
55369;DHT22;41247;49.736;8.752;2023-04-24T21:26:39;7.70;99.90
55369;DHT22;41247;49.736;8.752;2023-04-24T21:30:20;7.70;99.90
55369;DHT22;41247;49.736;8.752;2023-04-24T21:34:00;7.70;99.90
55369;DHT22;41247;49.736;8.752;2023-04-24T21:37:41;7.70;99.90
55369;DHT22;41247;49.736;8.752;2023-04-24T21:41:21;7.60;99.90
55369;DHT22;41247;49.736;8.752;2023-04-24T21:45:03;7.70;99.90
55369;DHT22;41247;49.736;8.752;2023-04-24T21:48:44;7.70;99.90
55369;DHT22;41247;49.736;8.752;2023-04-24T21:52:24;7.70;99.90
55369;DHT22;41247;49.736;8.752;2023-04-24T21:56:05;7.70;99.90
55369;DHT22;41247;49.736;8.752;2023-04-24T21:59:46;7.70;99.90
55369;DHT22;41247;49.736;8.752;2023-04-24T22:03:27;7.60;99.90
55369;DHT22;41247;49.736;8.752;2023-04-24T22:07:07;7.60;99.90
55369;DHT22;41247;49.736;8.752;2023-04-24T22:10:50;7.60;99.90
55369;DHT22;41247;49.736;8.752;2023-04-24T22:14:31;7.60;99.90
55369;DHT22;41247;49.736;8.752;2023-04-24T22:18:12;7.60;99.90
55369;DHT22;41247;49.736;8.752;2023-04-24T22:21:52;7.50;99.90
55369;DHT22;41247;49.736;8.752;2023-04-24T22:25:33;7.40;99.90
55369;DHT22;41247;49.736;8.752;2023-04-24T22:29:14;7.30;99.90
55369;DHT22;41247;49.736;8.752;2023-04-24T22:32:54;7.20;99.90
55369;DHT22;41247;49.736;8.752;2023-04-24T22:36:35;7.10;99.90
55369;DHT22;41247;49.736;8.752;2023-04-24T22:40:16;7.00;99.90
55369;DHT22;41247;49.736;8.752;2023-04-24T22:43:56;6.90;99.90
55369;DHT22;41247;49.736;8.752;2023-04-24T22:47:38;6.90;99.90
55369;DHT22;41247;49.736;8.752;2023-04-24T22:51:19;6.80;99.90
55369;DHT22;41247;49.736;8.752;2023-04-24T22:55:00;6.80;99.90
55369;DHT22;41247;49.736;8.752;2023-04-24T22:58:41;6.80;99.90
55369;DHT22;41247;49.736;8.752;2023-04-24T23:02:22;6.80;99.90
55369;DHT22;41247;49.736;8.752;2023-04-24T23:06:02;6.70;99.90
55369;DHT22;41247;49.736;8.752;2023-04-24T23:09:43;6.70;99.90
55369;DHT22;41247;49.736;8.752;2023-04-24T23:13:24;6.60;99.90
55369;DHT22;41247;49.736;8.752;2023-04-24T23:17:04;6.60;99.90
55369;DHT22;41247;49.736;8.752;2023-04-24T23:20:45;6.50;99.90
55369;DHT22;41247;49.736;8.752;2023-04-24T23:24:26;6.50;99.90
55369;DHT22;41247;49.736;8.752;2023-04-24T23:28:06;6.40;99.90
55369;DHT22;41247;49.736;8.752;2023-04-24T23:31:48;6.40;99.90
55369;DHT22;41247;49.736;8.752;2023-04-24T23:35:28;6.40;99.90
55369;DHT22;41247;49.736;8.752;2023-04-24T23:39:09;6.40;99.90
55369;DHT22;41247;49.736;8.752;2023-04-24T23:42:49;6.40;99.90